createdAt,value
2018-12-12T00:00:21.464Z,3
2018-12-12T00:01:21.400Z,3
2018-12-12T00:02:21.408Z,3
2018-12-12T00:03:21.430Z,3
2018-12-12T00:08:21.419Z,2
2018-12-12T00:09:21.390Z,2
2018-12-12T00:10:21.396Z,2
2018-12-12T00:11:21.474Z,2
2018-12-12T00:12:21.374Z,2
2018-12-12T00:13:21.473Z,2
2018-12-12T00:14:21.412Z,2
2018-12-12T00:15:21.441Z,2
2018-12-12T00:16:21.439Z,2
2018-12-12T00:17:21.382Z,2
2018-12-12T00:18:21.397Z,2
2018-12-12T00:19:21.434Z,2
2018-12-12T00:20:21.649Z,2
2018-12-12T00:21:21.443Z,2
2018-12-12T00:22:21.375Z,2
2018-12-12T00:23:21.434Z,2
2018-12-12T00:24:21.376Z,2
2018-12-12T00:25:21.377Z,2
2018-12-12T00:26:21.496Z,2
2018-12-12T00:27:21.523Z,2
2018-12-12T00:28:21.383Z,2
2018-12-12T00:29:21.498Z,2
2018-12-12T00:30:21.377Z,2
2018-12-12T00:31:21.378Z,2
2018-12-12T00:32:21.398Z,2
2018-12-12T00:33:21.365Z,2
2018-12-12T00:34:21.427Z,2
2018-12-12T00:35:21.376Z,2
2018-12-12T00:36:21.414Z,2
2018-12-12T00:37:21.377Z,2
2018-12-12T00:38:21.446Z,2
2018-12-12T00:39:21.427Z,2
2018-12-12T00:40:21.376Z,2
2018-12-12T00:41:21.368Z,2
2018-12-12T00:42:21.454Z,2
2018-12-12T00:43:21.376Z,2
2018-12-12T00:44:21.420Z,2
2018-12-12T00:45:21.385Z,2
2018-12-12T00:46:21.366Z,2
2018-12-12T00:47:21.426Z,2
2018-12-12T00:48:21.498Z,2
2018-12-12T00:49:21.438Z,2
2018-12-12T00:50:21.378Z,2
2018-12-12T00:51:21.384Z,2
2018-12-12T00:52:21.382Z,2
2018-12-12T00:53:21.385Z,2
2018-12-12T00:54:21.511Z,2
2018-12-12T00:55:21.384Z,2
2018-12-12T00:56:21.476Z,2
2018-12-12T00:57:21.468Z,2
2018-12-12T00:58:21.400Z,2
2018-12-12T00:59:21.372Z,2
2018-12-12T01:00:21.382Z,2
2018-12-12T01:01:21.499Z,2
2018-12-12T01:02:21.437Z,2
2018-12-12T01:03:21.462Z,3
2018-12-12T01:04:21.368Z,2
2018-12-12T01:05:21.362Z,2
2018-12-12T01:06:21.433Z,2
2018-12-12T01:07:21.426Z,2
2018-12-12T01:08:21.425Z,2
2018-12-12T01:09:21.362Z,2
2018-12-12T01:10:21.379Z,2
2018-12-12T01:11:21.479Z,2
2018-12-12T01:12:21.461Z,2
2018-12-12T01:13:21.406Z,2
2018-12-12T01:14:21.431Z,2
2018-12-12T01:15:21.415Z,2
2018-12-12T01:16:21.464Z,2
2018-12-12T01:17:21.395Z,2
2018-12-12T01:18:21.452Z,2
2018-12-12T01:19:21.377Z,2
2018-12-12T01:20:21.599Z,2
2018-12-12T01:21:21.919Z,2
2018-12-12T01:22:21.572Z,2
2018-12-12T01:23:21.596Z,2
2018-12-12T01:24:21.641Z,2
2018-12-12T01:25:21.385Z,2
2018-12-12T01:26:21.421Z,2
2018-12-12T01:27:21.412Z,2
2018-12-12T01:28:21.369Z,2
2018-12-12T01:29:21.421Z,2
2018-12-12T01:30:21.375Z,2
2018-12-12T01:31:21.396Z,2
2018-12-12T01:32:21.389Z,2
2018-12-12T01:33:21.410Z,2
2018-12-12T01:34:21.425Z,2
2018-12-12T01:35:21.470Z,2
2018-12-12T01:36:21.375Z,2
2018-12-12T01:37:21.383Z,2
2018-12-12T01:38:21.380Z,2
2018-12-12T01:39:21.421Z,2
2018-12-12T01:40:21.436Z,2
2018-12-12T01:41:21.432Z,2
2018-12-12T01:42:21.409Z,2
2018-12-12T01:43:21.424Z,2
2018-12-12T01:45:21.442Z,2
2018-12-12T01:46:21.401Z,2
2018-12-12T01:47:21.431Z,2
2018-12-12T01:48:21.448Z,2
2018-12-12T01:49:21.450Z,2
2018-12-12T01:50:21.438Z,2
2018-12-12T01:51:21.385Z,2
2018-12-12T01:52:21.421Z,2
2018-12-12T01:53:21.417Z,2
2018-12-12T01:54:21.483Z,2
2018-12-12T01:55:21.412Z,2
2018-12-12T01:56:21.398Z,2
2018-12-12T01:57:21.510Z,2
2018-12-12T01:58:21.434Z,2
2018-12-12T01:59:21.383Z,2
2018-12-12T02:00:21.423Z,2
2018-12-12T02:01:21.385Z,2
2018-12-12T02:02:21.491Z,2
2018-12-12T02:03:21.450Z,2
2018-12-12T02:04:21.400Z,2
2018-12-12T02:05:21.426Z,2
2018-12-12T02:06:21.380Z,2
2018-12-12T02:07:21.417Z,2
2018-12-12T02:08:21.511Z,2
2018-12-12T02:09:21.693Z,2
2018-12-12T02:10:21.417Z,2
2018-12-12T02:11:21.378Z,2
2018-12-12T02:12:21.414Z,2
2018-12-12T02:13:21.373Z,2
2018-12-12T02:14:21.542Z,2
2018-12-12T02:15:21.373Z,2
2018-12-12T02:16:21.370Z,2
2018-12-12T02:17:21.427Z,2
2018-12-12T02:18:21.404Z,2
2018-12-12T02:19:21.444Z,2
2018-12-12T02:20:21.372Z,2
2018-12-12T02:21:21.372Z,2
2018-12-12T02:22:21.706Z,2
2018-12-12T02:23:21.415Z,2
2018-12-12T02:24:21.405Z,2
2018-12-12T02:25:21.373Z,2
2018-12-12T02:26:21.385Z,2
2018-12-12T02:27:21.416Z,2
2018-12-12T02:28:21.371Z,2
2018-12-12T02:29:21.403Z,2
2018-12-12T02:30:21.386Z,2
2018-12-12T02:31:21.444Z,2
2018-12-12T02:32:21.807Z,2
2018-12-12T02:33:21.372Z,2
2018-12-12T02:34:21.372Z,2
2018-12-12T02:35:21.380Z,2
2018-12-12T02:36:21.457Z,2
2018-12-12T02:37:21.446Z,2
2018-12-12T02:38:21.422Z,2
2018-12-12T02:39:21.431Z,2
2018-12-12T02:40:21.419Z,2
2018-12-12T02:41:21.597Z,2
2018-12-12T02:42:21.371Z,2
2018-12-12T02:43:21.448Z,2
2018-12-12T02:44:21.375Z,2
2018-12-12T02:45:21.388Z,2
2018-12-12T02:46:21.383Z,2
2018-12-12T02:47:21.445Z,2
2018-12-12T02:48:21.420Z,2
2018-12-12T02:49:21.433Z,2
2018-12-12T02:50:21.371Z,2
2018-12-12T02:51:21.373Z,2
2018-12-12T02:52:21.399Z,2
2018-12-12T02:53:21.437Z,2
2018-12-12T02:54:21.373Z,2
2018-12-12T02:55:21.416Z,2
2018-12-12T02:59:21.432Z,2
2018-12-12T03:01:21.514Z,2
2018-12-12T03:02:21.370Z,2
2018-12-12T03:03:21.434Z,2
2018-12-12T03:04:21.427Z,2
2018-12-12T03:05:21.369Z,2
2018-12-12T03:06:21.369Z,2
2018-12-12T03:07:21.371Z,2
2018-12-12T03:08:21.367Z,2
2018-12-12T03:09:21.375Z,2
2018-12-12T03:10:21.426Z,2
2018-12-12T03:11:21.400Z,2
2018-12-12T03:12:21.373Z,2
2018-12-12T03:13:21.369Z,2
2018-12-12T03:14:21.370Z,2
2018-12-12T03:15:21.460Z,2
2018-12-12T03:16:21.408Z,2
2018-12-12T03:17:21.387Z,2
2018-12-12T03:18:21.382Z,2
2018-12-12T03:19:21.383Z,2
2018-12-12T03:20:21.408Z,2
2018-12-12T03:21:21.422Z,2
2018-12-12T03:22:21.387Z,2
2018-12-12T03:23:21.381Z,2
2018-12-12T03:24:21.395Z,2
2018-12-12T03:25:21.383Z,2
2018-12-12T03:26:21.430Z,2
2018-12-12T03:27:21.467Z,2
2018-12-12T03:28:21.443Z,2
2018-12-12T03:29:21.400Z,2
2018-12-12T03:30:21.379Z,2
2018-12-12T03:31:21.395Z,2
2018-12-12T03:32:21.468Z,2
2018-12-12T03:33:21.453Z,2
2018-12-12T03:34:21.428Z,2
2018-12-12T03:35:21.373Z,2
2018-12-12T03:36:21.401Z,2
2018-12-12T03:37:21.414Z,2
2018-12-12T03:38:21.414Z,2
2018-12-12T03:39:21.410Z,2
2018-12-12T03:40:21.434Z,2
2018-12-12T03:41:21.382Z,2
2018-12-12T03:42:21.418Z,2
2018-12-12T03:43:21.431Z,2
2018-12-12T03:44:21.419Z,2
2018-12-12T03:45:21.367Z,2
2018-12-12T03:46:21.419Z,2
2018-12-12T03:47:21.374Z,2
2018-12-12T03:48:21.382Z,2
2018-12-12T03:49:21.433Z,2
2018-12-12T03:50:21.439Z,2
2018-12-12T03:51:21.422Z,2
2018-12-12T03:52:21.404Z,2
2018-12-12T03:53:21.422Z,2
2018-12-12T03:54:21.405Z,2
2018-12-12T03:55:21.438Z,2
2018-12-12T03:56:21.386Z,2
2018-12-12T03:57:21.389Z,2
2018-12-12T03:58:21.369Z,2
2018-12-12T03:59:21.495Z,2
2018-12-12T04:00:21.595Z,2
2018-12-12T04:01:21.428Z,2
2018-12-12T04:02:21.395Z,2
2018-12-12T04:03:21.410Z,2
2018-12-12T04:04:21.379Z,2
2018-12-12T04:05:21.487Z,2
2018-12-12T04:06:21.428Z,2
2018-12-12T04:07:21.473Z,2
2018-12-12T04:08:21.376Z,2
2018-12-12T04:09:21.393Z,2
2018-12-12T04:10:21.381Z,2
2018-12-12T04:11:21.437Z,2
2018-12-12T04:12:21.433Z,2
2018-12-12T04:13:21.474Z,2
2018-12-12T04:14:21.441Z,2
2018-12-12T04:15:21.401Z,2
2018-12-12T04:16:21.391Z,2
2018-12-12T04:17:21.371Z,2
2018-12-12T04:18:21.437Z,2
2018-12-12T04:19:21.594Z,2
2018-12-12T04:20:21.392Z,2
2018-12-12T04:21:21.382Z,2
2018-12-12T04:22:21.375Z,2
2018-12-12T04:23:21.439Z,2
2018-12-12T04:24:21.433Z,2
2018-12-12T04:25:21.434Z,2
2018-12-12T04:26:21.386Z,2
2018-12-12T04:27:21.368Z,3
2018-12-12T04:28:21.394Z,3
2018-12-12T04:29:21.370Z,2
2018-12-12T04:30:21.516Z,2
2018-12-12T04:31:21.404Z,2
2018-12-12T04:32:21.399Z,2
2018-12-12T04:33:21.360Z,2
2018-12-12T04:34:21.404Z,2
2018-12-12T04:35:21.610Z,2
2018-12-12T04:36:21.444Z,2
2018-12-12T04:37:21.384Z,2
2018-12-12T04:38:21.352Z,2
2018-12-12T04:39:21.413Z,2
2018-12-12T04:40:21.347Z,2
2018-12-12T04:41:21.455Z,2
2018-12-12T04:42:21.419Z,2
2018-12-12T04:43:21.355Z,2
2018-12-12T04:44:21.381Z,2
2018-12-12T04:45:21.395Z,2
2018-12-12T04:46:21.395Z,2
2018-12-12T04:47:21.434Z,2
2018-12-12T04:48:21.406Z,2
2018-12-12T04:50:21.372Z,2
2018-12-12T04:51:21.350Z,2
2018-12-12T04:52:21.362Z,2
2018-12-12T04:53:21.431Z,2
2018-12-12T04:54:21.434Z,2
2018-12-12T04:55:21.390Z,2
2018-12-12T04:56:21.347Z,2
2018-12-12T04:57:21.401Z,2
2018-12-12T04:58:21.438Z,2
2018-12-12T04:59:21.534Z,2
2018-12-12T05:00:21.433Z,2
2018-12-12T05:01:21.360Z,2
2018-12-12T05:02:21.377Z,2
2018-12-12T05:03:21.421Z,2
2018-12-12T05:04:21.395Z,2
2018-12-12T05:05:21.440Z,2
2018-12-12T05:06:21.394Z,2
2018-12-12T05:07:21.416Z,2
2018-12-12T05:08:21.356Z,2
2018-12-12T05:09:21.403Z,2
2018-12-12T05:10:21.394Z,2
2018-12-12T05:11:21.459Z,2
2018-12-12T05:12:21.361Z,2
2018-12-12T05:13:21.404Z,2
2018-12-12T05:14:21.358Z,2
2018-12-12T05:15:21.387Z,2
2018-12-12T05:16:21.429Z,2
2018-12-12T05:17:21.536Z,2
2018-12-12T05:18:21.362Z,2
2018-12-12T05:19:21.365Z,2
2018-12-12T05:20:21.964Z,2
2018-12-12T05:21:21.373Z,2
2018-12-12T05:22:21.503Z,2
2018-12-12T05:23:21.381Z,2
2018-12-12T05:24:21.431Z,2
2018-12-12T05:25:21.444Z,2
2018-12-12T05:26:21.383Z,2
2018-12-12T05:27:21.396Z,2
2018-12-12T05:28:21.406Z,2
2018-12-12T05:29:21.427Z,2
2018-12-12T05:30:21.452Z,2
2018-12-12T05:31:21.399Z,2
2018-12-12T05:32:21.379Z,2
2018-12-12T05:33:21.375Z,2
2018-12-12T05:34:21.374Z,2
2018-12-12T05:35:21.437Z,2
2018-12-12T05:36:21.573Z,2
2018-12-12T05:37:21.372Z,2
2018-12-12T05:38:21.366Z,2
2018-12-12T05:39:21.422Z,2
2018-12-12T05:40:21.369Z,2
2018-12-12T05:41:21.410Z,2
2018-12-12T05:42:22.024Z,2
2018-12-12T05:43:21.425Z,2
2018-12-12T05:44:21.361Z,2
2018-12-12T05:45:21.398Z,2
2018-12-12T05:46:21.364Z,2
2018-12-12T05:47:21.413Z,2
2018-12-12T05:48:21.423Z,2
2018-12-12T05:50:21.440Z,2
2018-12-12T05:52:21.380Z,2
2018-12-12T05:53:21.380Z,2
2018-12-12T05:54:21.381Z,3
2018-12-12T05:55:21.458Z,3
2018-12-12T05:56:21.372Z,3
2018-12-12T05:57:21.378Z,3
2018-12-12T05:58:21.446Z,3
2018-12-12T05:59:21.439Z,4
2018-12-12T06:00:21.431Z,4
2018-12-12T06:01:21.398Z,4
2018-12-12T06:02:21.476Z,2
2018-12-12T06:03:21.372Z,2
2018-12-12T06:04:21.373Z,2
2018-12-12T06:05:21.429Z,2
2018-12-12T06:06:21.440Z,2
2018-12-12T06:07:21.407Z,2
2018-12-12T06:08:21.416Z,2
2018-12-12T06:09:21.380Z,2
2018-12-12T06:10:21.413Z,2
2018-12-12T06:11:21.355Z,2
2018-12-12T06:12:21.423Z,3
2018-12-12T06:13:21.410Z,3
2018-12-12T06:14:21.358Z,3
2018-12-12T06:15:21.353Z,3
2018-12-12T06:16:21.399Z,3
2018-12-12T06:17:21.412Z,3
2018-12-12T06:18:21.427Z,3
2018-12-12T06:19:21.501Z,3
2018-12-12T06:20:21.365Z,2
2018-12-12T06:21:21.417Z,2
2018-12-12T06:22:21.430Z,2
2018-12-12T06:23:21.402Z,3
2018-12-12T06:24:21.459Z,3
2018-12-12T06:25:21.378Z,2
2018-12-12T06:26:21.429Z,2
2018-12-12T06:27:21.517Z,2
2018-12-12T06:28:21.416Z,2
2018-12-12T06:29:21.457Z,2
2018-12-12T06:30:21.414Z,2
2018-12-12T06:31:21.389Z,3
2018-12-12T06:32:21.490Z,2
2018-12-12T06:33:21.691Z,3
2018-12-12T06:34:21.530Z,2
2018-12-12T06:35:21.481Z,2
2018-12-12T06:36:21.370Z,2
2018-12-12T06:37:21.383Z,2
2018-12-12T06:38:21.407Z,3
2018-12-12T06:39:21.359Z,3
2018-12-12T06:40:21.591Z,3
2018-12-12T06:41:21.354Z,2
2018-12-12T06:42:21.374Z,2
2018-12-12T06:43:21.438Z,2
2018-12-12T06:44:21.445Z,2
2018-12-12T06:45:25.106Z,5
2018-12-12T06:46:21.438Z,3
2018-12-12T06:47:21.356Z,2
2018-12-12T06:48:21.475Z,3
2018-12-12T06:49:21.380Z,2
2018-12-12T06:50:21.589Z,6
2018-12-12T06:51:21.420Z,8
2018-12-12T06:52:21.374Z,2
2018-12-12T06:53:21.371Z,4
2018-12-12T06:54:21.449Z,6
2018-12-12T06:55:21.790Z,4
2018-12-12T06:56:21.369Z,3
2018-12-12T06:57:21.413Z,3
2018-12-12T06:58:21.618Z,3
2018-12-12T06:59:21.433Z,3
2018-12-12T07:00:21.570Z,3
2018-12-12T07:01:21.396Z,3
2018-12-12T07:02:21.392Z,3
2018-12-12T07:03:21.381Z,3
2018-12-12T07:04:21.376Z,3
2018-12-12T07:05:21.424Z,3
2018-12-12T07:06:21.401Z,3
2018-12-12T07:07:22.129Z,4
2018-12-12T07:08:22.015Z,4
2018-12-12T07:09:23.508Z,4
2018-12-12T07:10:23.415Z,4
2018-12-12T07:11:21.368Z,4
2018-12-12T07:12:21.421Z,4
2018-12-12T07:13:21.383Z,4
2018-12-12T07:14:21.377Z,4
2018-12-12T07:15:22.432Z,5
2018-12-12T07:16:21.486Z,7
2018-12-12T07:17:21.685Z,7
2018-12-12T07:18:21.377Z,5
2018-12-12T07:19:21.376Z,5
2018-12-12T07:20:21.372Z,3
2018-12-12T07:21:21.371Z,4
2018-12-12T07:22:21.442Z,5
2018-12-12T07:23:21.368Z,4
2018-12-12T07:24:21.380Z,4
2018-12-12T07:25:21.374Z,4
2018-12-12T07:26:21.390Z,4
2018-12-12T07:27:21.419Z,4
2018-12-12T07:28:21.392Z,4
2018-12-12T07:29:21.373Z,4
2018-12-12T07:30:21.376Z,4
2018-12-12T07:31:21.381Z,4
2018-12-12T07:32:26.037Z,4
2018-12-12T07:33:21.441Z,4
2018-12-12T07:34:21.374Z,4
2018-12-12T07:35:21.395Z,4
2018-12-12T07:36:21.429Z,4
2018-12-12T07:37:21.373Z,4
2018-12-12T07:38:21.439Z,4
2018-12-12T07:39:21.376Z,5
2018-12-12T07:40:21.385Z,4
2018-12-12T07:41:21.376Z,4
2018-12-12T07:42:21.379Z,4
2018-12-12T07:43:21.428Z,4
2018-12-12T07:44:21.415Z,4
2018-12-12T07:45:21.379Z,4
2018-12-12T07:46:21.377Z,4
2018-12-12T07:47:21.383Z,4
2018-12-12T07:48:21.374Z,4
2018-12-12T07:49:21.437Z,4
2018-12-12T07:50:21.374Z,4
2018-12-12T07:51:21.431Z,4
2018-12-12T07:52:21.379Z,4
2018-12-12T07:53:21.872Z,4
2018-12-12T07:54:21.362Z,4
2018-12-12T07:55:21.373Z,4
2018-12-12T07:56:21.437Z,4
2018-12-12T07:57:21.372Z,6
2018-12-12T07:58:21.386Z,6
2018-12-12T07:59:21.456Z,5
2018-12-12T08:00:21.388Z,5
2018-12-12T08:01:21.442Z,5
2018-12-12T08:02:21.454Z,4
2018-12-12T08:03:21.461Z,4
2018-12-12T08:04:21.393Z,4
2018-12-12T08:05:21.432Z,4
2018-12-12T08:06:21.382Z,4
2018-12-12T08:07:21.449Z,4
2018-12-12T08:08:21.382Z,4
2018-12-12T08:09:21.394Z,4
2018-12-12T08:10:21.382Z,4
2018-12-12T08:11:21.427Z,4
2018-12-12T08:12:21.511Z,5
2018-12-12T08:13:21.441Z,4
2018-12-12T08:14:21.410Z,4
2018-12-12T08:15:21.386Z,3
2018-12-12T08:16:21.387Z,3
2018-12-12T08:17:21.531Z,4
2018-12-12T08:18:21.422Z,4
2018-12-12T08:19:21.393Z,4
2018-12-12T08:20:21.371Z,4
2018-12-12T08:21:21.392Z,6
2018-12-12T08:22:21.426Z,6
2018-12-12T08:23:24.480Z,7
2018-12-12T08:24:21.562Z,6
2018-12-12T08:25:21.403Z,5
2018-12-12T08:26:21.401Z,5
2018-12-12T08:27:21.387Z,5
2018-12-12T08:28:21.436Z,5
2018-12-12T08:29:21.471Z,5
2018-12-12T08:30:21.406Z,4
2018-12-12T08:31:21.375Z,5
2018-12-12T08:32:21.377Z,4
2018-12-12T08:33:21.384Z,4
2018-12-12T08:34:21.408Z,4
2018-12-12T08:35:21.453Z,4
2018-12-12T08:36:21.369Z,4
2018-12-12T08:37:21.369Z,4
2018-12-12T08:38:21.367Z,4
2018-12-12T08:39:21.392Z,3
2018-12-12T08:40:21.500Z,4
2018-12-12T08:41:21.508Z,4
2018-12-12T08:42:21.614Z,5
2018-12-12T08:43:21.407Z,5
2018-12-12T08:45:21.443Z,4
2018-12-12T08:46:21.377Z,4
2018-12-12T08:47:21.361Z,6
2018-12-12T08:49:22.408Z,6
2018-12-12T08:50:24.027Z,6
2018-12-12T08:51:21.505Z,4
2018-12-12T08:52:21.384Z,5
2018-12-12T08:53:21.370Z,5
2018-12-12T08:54:21.532Z,5
2018-12-12T08:55:21.503Z,4
2018-12-12T08:56:21.375Z,4
2018-12-12T08:57:21.436Z,5
2018-12-12T08:58:21.460Z,5
2018-12-12T08:59:21.388Z,5
2018-12-12T09:00:21.444Z,5
2018-12-12T09:01:21.539Z,6
2018-12-12T09:02:21.390Z,6
2018-12-12T09:03:21.399Z,6
2018-12-12T09:04:21.482Z,6
2018-12-12T09:05:21.385Z,6
2018-12-12T09:06:21.427Z,5
2018-12-12T09:07:21.398Z,4
2018-12-12T09:08:21.399Z,4
2018-12-12T09:09:21.409Z,4
2018-12-12T09:10:21.795Z,4
2018-12-12T09:11:21.424Z,3
2018-12-12T09:12:21.381Z,3
2018-12-12T09:13:21.388Z,3
2018-12-12T09:14:21.388Z,3
2018-12-12T09:15:21.541Z,3
2018-12-12T09:16:21.402Z,3
2018-12-12T09:17:21.445Z,3
2018-12-12T09:18:21.439Z,3
2018-12-12T09:19:21.384Z,3
2018-12-12T09:20:21.430Z,3
2018-12-12T09:21:21.375Z,3
2018-12-12T09:22:21.380Z,3
2018-12-12T09:23:21.401Z,3
2018-12-12T09:24:21.388Z,3
2018-12-12T09:25:21.442Z,3
2018-12-12T09:26:21.377Z,3
2018-12-12T09:27:21.393Z,3
2018-12-12T09:28:21.992Z,4
2018-12-12T09:29:21.405Z,3
2018-12-12T09:30:21.477Z,3
2018-12-12T09:31:21.450Z,3
2018-12-12T09:32:21.417Z,3
2018-12-12T09:33:24.554Z,3
2018-12-12T09:34:21.405Z,3
2018-12-12T09:35:21.628Z,4
2018-12-12T09:36:21.381Z,4
2018-12-12T09:37:21.352Z,4
2018-12-12T09:38:21.349Z,4
2018-12-12T09:39:21.389Z,4
2018-12-12T09:40:21.265Z,4
2018-12-12T09:41:21.262Z,4
2018-12-12T09:42:26.309Z,4
2018-12-12T09:43:21.314Z,4
2018-12-12T09:44:23.814Z,4
2018-12-12T09:45:21.825Z,4
2018-12-12T09:46:21.318Z,4
2018-12-12T09:47:21.302Z,4
2018-12-12T09:48:21.339Z,4
2018-12-12T09:49:21.358Z,4
2018-12-12T09:50:21.292Z,4
2018-12-12T09:51:21.300Z,4
2018-12-12T09:52:21.332Z,4
2018-12-12T09:53:21.362Z,4
2018-12-12T09:54:21.429Z,4
2018-12-12T09:55:21.491Z,4
2018-12-12T09:56:21.359Z,4
2018-12-12T09:57:21.402Z,4
2018-12-12T09:58:21.451Z,4
2018-12-12T09:59:21.376Z,4
2018-12-12T10:00:21.388Z,4
2018-12-12T10:01:21.366Z,4
2018-12-12T10:02:21.375Z,4
2018-12-12T10:03:21.424Z,4
2018-12-12T10:04:21.360Z,4
2018-12-12T10:05:21.375Z,5
2018-12-12T10:06:21.422Z,5
2018-12-12T10:07:21.369Z,5
2018-12-12T10:08:21.819Z,5
2018-12-12T10:09:21.429Z,5
2018-12-12T10:10:21.401Z,5
2018-12-12T10:11:21.370Z,5
2018-12-12T10:12:21.388Z,5
2018-12-12T10:13:21.372Z,5
2018-12-12T10:14:21.489Z,5
2018-12-12T10:15:21.379Z,5
2018-12-12T10:16:21.378Z,5
2018-12-12T10:17:21.376Z,5
2018-12-12T10:18:21.426Z,5
2018-12-12T10:19:21.407Z,5
2018-12-12T10:20:21.414Z,5
2018-12-12T10:21:21.409Z,5
2018-12-12T10:22:21.364Z,6
2018-12-12T10:23:21.374Z,6
2018-12-12T10:24:21.489Z,6
2018-12-12T10:25:21.470Z,6
2018-12-12T10:26:21.484Z,6
2018-12-12T10:27:21.407Z,6
2018-12-12T10:28:21.453Z,6
2018-12-12T10:29:21.369Z,6
2018-12-12T10:30:21.377Z,6
2018-12-12T10:31:21.383Z,6
2018-12-12T10:32:21.404Z,6
2018-12-12T10:33:21.419Z,6
2018-12-12T10:34:21.369Z,6
2018-12-12T10:35:21.445Z,6
2018-12-12T10:36:23.361Z,6
2018-12-12T10:37:21.366Z,6
2018-12-12T10:38:21.358Z,6
2018-12-12T10:39:21.378Z,7
2018-12-12T10:40:21.371Z,6
2018-12-12T10:41:21.418Z,7
2018-12-12T10:42:21.371Z,6
2018-12-12T10:43:22.735Z,6
2018-12-12T10:44:21.541Z,6
2018-12-12T10:45:21.400Z,7
2018-12-12T10:46:21.383Z,7
2018-12-12T10:47:21.947Z,6
2018-12-12T10:48:21.375Z,6
2018-12-12T10:49:21.417Z,7
2018-12-12T10:50:21.468Z,7
2018-12-12T10:51:21.399Z,7
2018-12-12T10:52:21.380Z,5
2018-12-12T10:53:21.373Z,5
2018-12-12T10:54:21.624Z,5
2018-12-12T10:55:21.404Z,5
2018-12-12T10:56:21.455Z,5
2018-12-12T10:57:21.406Z,5
2018-12-12T10:58:21.379Z,6
2018-12-12T10:59:21.432Z,6
2018-12-12T11:00:21.429Z,6
2018-12-12T11:01:21.377Z,6
2018-12-12T11:02:21.384Z,6
2018-12-12T11:03:21.398Z,7
2018-12-12T11:04:21.417Z,6
2018-12-12T11:05:21.452Z,6
2018-12-12T11:06:21.384Z,6
2018-12-12T11:07:21.455Z,6
2018-12-12T11:08:21.378Z,6
2018-12-12T11:09:21.552Z,6
2018-12-12T11:10:21.432Z,7
2018-12-12T11:11:21.624Z,6
2018-12-12T11:12:21.427Z,5
2018-12-12T11:13:21.451Z,6
2018-12-12T11:14:21.416Z,6
2018-12-12T11:15:21.378Z,6
2018-12-12T11:16:21.454Z,6
2018-12-12T11:17:21.370Z,6
2018-12-12T11:18:21.392Z,6
2018-12-12T11:19:21.433Z,6
2018-12-12T11:20:21.374Z,6
2018-12-12T11:21:21.479Z,6
2018-12-12T11:22:21.384Z,5
2018-12-12T11:23:21.391Z,5
2018-12-12T11:24:21.494Z,5
2018-12-12T11:25:21.376Z,5
2018-12-12T11:26:21.479Z,5
2018-12-12T11:27:21.431Z,6
2018-12-12T11:28:21.479Z,5
2018-12-12T11:29:21.486Z,5
2018-12-12T11:30:21.376Z,5
2018-12-12T11:31:21.414Z,5
2018-12-12T11:32:21.377Z,5
2018-12-12T11:33:21.381Z,5
2018-12-12T11:34:21.444Z,5
2018-12-12T11:35:21.366Z,5
2018-12-12T11:36:21.389Z,5
2018-12-12T11:37:21.381Z,5
2018-12-12T11:38:21.386Z,5
2018-12-12T11:39:21.469Z,5
2018-12-12T11:40:21.380Z,5
2018-12-12T11:41:21.403Z,5
2018-12-12T11:42:21.415Z,5
2018-12-12T11:43:21.396Z,6
2018-12-12T11:46:21.660Z,7
2018-12-12T11:49:21.428Z,6
2018-12-12T11:50:21.373Z,7
2018-12-12T11:51:21.370Z,6
2018-12-12T11:52:22.482Z,7
2018-12-12T11:53:21.579Z,7
2018-12-12T11:54:21.808Z,7
2018-12-12T11:55:22.886Z,10
2018-12-12T11:56:23.513Z,11
2018-12-12T11:57:22.429Z,12
2018-12-12T11:58:27.419Z,10
2018-12-12T11:59:21.775Z,10
2018-12-12T12:00:22.883Z,11
2018-12-12T12:01:28.936Z,11
2018-12-12T12:02:22.241Z,12
2018-12-12T12:03:24.787Z,12
2018-12-12T12:04:22.348Z,11
2018-12-12T12:05:25.451Z,7
2018-12-12T12:06:21.400Z,4
2018-12-12T12:07:21.365Z,4
2018-12-12T12:08:21.370Z,4
2018-12-12T12:09:21.418Z,4
2018-12-12T12:10:21.375Z,4
2018-12-12T12:11:22.023Z,5
2018-12-12T12:12:21.369Z,4
2018-12-12T12:13:22.135Z,5
2018-12-12T12:14:23.170Z,6
2018-12-12T12:15:21.421Z,4
2018-12-12T12:16:21.383Z,4
2018-12-12T12:17:21.366Z,5
2018-12-12T12:18:21.347Z,5
2018-12-12T12:19:21.411Z,6
2018-12-12T12:20:22.215Z,5
2018-12-12T12:21:21.456Z,4
2018-12-12T12:22:21.424Z,5
2018-12-12T12:23:24.033Z,10
2018-12-12T12:24:21.660Z,4
2018-12-12T12:25:21.386Z,4
2018-12-12T12:26:21.444Z,4
2018-12-12T12:27:21.429Z,4
2018-12-12T12:28:21.370Z,3
2018-12-12T12:29:21.457Z,4
2018-12-12T12:30:21.393Z,4
2018-12-12T12:31:21.376Z,3
2018-12-12T12:32:21.457Z,4
2018-12-12T12:33:21.390Z,4
2018-12-12T12:34:21.421Z,4
2018-12-12T12:35:21.443Z,4
2018-12-12T12:36:21.331Z,4
2018-12-12T12:37:21.344Z,4
2018-12-12T12:38:21.298Z,4
2018-12-12T12:39:21.302Z,5
2018-12-12T12:40:22.047Z,5
2018-12-12T12:41:21.379Z,5
2018-12-12T12:42:22.681Z,5
2018-12-12T12:43:22.454Z,5
2018-12-12T12:44:21.408Z,4
2018-12-12T12:45:21.382Z,4
2018-12-12T12:46:21.531Z,4
2018-12-12T12:47:21.354Z,4
2018-12-12T12:48:21.318Z,4
2018-12-12T12:49:21.312Z,4
2018-12-12T12:50:21.362Z,4
2018-12-12T12:51:21.345Z,4
2018-12-12T12:52:21.427Z,4
2018-12-12T12:53:21.369Z,4
2018-12-12T12:54:21.446Z,4
2018-12-12T12:55:21.422Z,4
2018-12-12T12:56:21.396Z,4
2018-12-12T12:57:21.443Z,4
2018-12-12T12:58:21.606Z,4
2018-12-12T12:59:21.616Z,4
2018-12-12T13:00:21.718Z,4
2018-12-12T13:01:21.410Z,4
2018-12-12T13:02:21.465Z,4
2018-12-12T13:03:21.416Z,4
2018-12-12T13:04:21.432Z,4
2018-12-12T13:05:21.407Z,4
2018-12-12T13:06:21.374Z,4
2018-12-12T13:07:21.384Z,4
2018-12-12T13:08:21.376Z,4
2018-12-12T13:09:21.409Z,4
2018-12-12T13:10:21.482Z,4
2018-12-12T13:11:21.454Z,4
2018-12-12T13:12:21.418Z,4
2018-12-12T13:13:21.497Z,4
2018-12-12T13:14:21.374Z,4
2018-12-12T13:15:21.420Z,4
2018-12-12T13:16:21.442Z,4
2018-12-12T13:17:21.448Z,4
2018-12-12T13:18:21.386Z,4
2018-12-12T13:19:21.365Z,4
2018-12-12T13:20:21.412Z,4
2018-12-12T13:21:21.429Z,4
2018-12-12T13:22:21.390Z,4
2018-12-12T13:23:21.423Z,4
2018-12-12T13:24:21.496Z,4
2018-12-12T13:25:21.366Z,4
2018-12-12T13:26:21.399Z,4
2018-12-12T13:27:21.463Z,4
2018-12-12T13:28:21.387Z,4
2018-12-12T13:29:21.409Z,4
2018-12-12T13:30:21.367Z,4
2018-12-12T13:31:21.418Z,4
2018-12-12T13:32:21.393Z,4
2018-12-12T13:33:21.395Z,3
2018-12-12T13:34:21.478Z,3
2018-12-12T13:35:21.373Z,3
2018-12-12T13:36:21.400Z,3
2018-12-12T13:37:21.405Z,3
2018-12-12T13:38:21.416Z,3
2018-12-12T13:39:21.455Z,3
2018-12-12T13:40:21.415Z,3
2018-12-12T13:41:21.390Z,3
2018-12-12T13:42:21.370Z,3
2018-12-12T13:43:21.393Z,3
2018-12-12T13:44:21.442Z,3
2018-12-12T13:45:21.395Z,3
2018-12-12T13:46:21.370Z,3
2018-12-12T13:47:21.419Z,3
2018-12-12T13:48:21.382Z,3
2018-12-12T13:49:21.510Z,3
2018-12-12T13:50:21.377Z,3
2018-12-12T13:51:21.490Z,3
2018-12-12T13:52:22.360Z,3
2018-12-12T13:53:21.396Z,3
2018-12-12T13:54:21.503Z,3
2018-12-12T13:55:21.423Z,3
2018-12-12T13:56:21.391Z,3
2018-12-12T13:57:21.415Z,3
2018-12-12T13:58:21.382Z,3
2018-12-12T13:59:21.425Z,3
2018-12-12T14:00:21.437Z,3
2018-12-12T14:01:21.365Z,3
2018-12-12T14:02:21.498Z,3
2018-12-12T14:03:21.363Z,4
2018-12-12T14:04:22.906Z,3
2018-12-12T14:05:21.370Z,3
2018-12-12T14:06:21.466Z,3
2018-12-12T14:07:21.657Z,3
2018-12-12T14:08:21.402Z,3
2018-12-12T14:09:21.414Z,3
2018-12-12T14:10:21.368Z,4
2018-12-12T14:11:21.442Z,4
2018-12-12T14:12:21.411Z,4
2018-12-12T14:13:21.414Z,4
2018-12-12T14:14:21.635Z,5
2018-12-12T14:15:21.588Z,4
2018-12-12T14:16:21.368Z,3
2018-12-12T14:17:21.536Z,4
2018-12-12T14:18:21.411Z,5
2018-12-12T14:19:21.508Z,3
2018-12-12T14:20:21.403Z,3
2018-12-12T14:21:21.369Z,4
2018-12-12T14:22:21.442Z,4
2018-12-12T14:23:21.370Z,4
2018-12-12T14:24:21.400Z,3
2018-12-12T14:25:21.387Z,3
2018-12-12T14:26:21.380Z,3
2018-12-12T14:27:21.455Z,3
2018-12-12T14:28:21.388Z,3
2018-12-12T14:29:21.367Z,3
2018-12-12T14:30:21.434Z,5
2018-12-12T14:31:21.380Z,5
2018-12-12T14:32:21.421Z,4
2018-12-12T14:33:21.370Z,4
2018-12-12T14:34:21.364Z,5
2018-12-12T14:35:21.386Z,5
2018-12-12T14:36:21.364Z,5
2018-12-12T14:37:21.401Z,5
2018-12-12T14:38:21.434Z,5
2018-12-12T14:39:21.538Z,4
2018-12-12T14:40:21.582Z,5
2018-12-12T14:41:21.381Z,5
2018-12-12T14:42:21.366Z,5
2018-12-12T14:43:21.373Z,6
2018-12-12T14:44:22.132Z,7
2018-12-12T14:45:21.981Z,9
2018-12-12T14:46:22.281Z,11
2018-12-12T14:47:21.682Z,9
2018-12-12T14:48:22.058Z,10
2018-12-12T14:49:22.648Z,12
2018-12-12T14:54:21.419Z,4
2018-12-12T14:55:21.471Z,4
2018-12-12T14:56:21.421Z,4
2018-12-12T14:57:21.997Z,4
2018-12-12T14:58:21.375Z,4
2018-12-12T14:59:21.431Z,5
2018-12-12T15:00:21.341Z,4
2018-12-12T15:01:21.314Z,4
2018-12-12T15:02:21.291Z,4
2018-12-12T15:03:21.272Z,4
2018-12-12T15:04:21.300Z,4
2018-12-12T15:05:21.317Z,4
2018-12-12T15:06:21.377Z,4
2018-12-12T15:07:21.353Z,4
2018-12-12T15:08:21.375Z,3